Cypress, FL

2:24 PM CDT on May 29, 2015 (GMT -0500)
Marianna Municipal | | Change Station
CLOSE
Current Station
Airport
Location: Marianna,
Elevation: 112 ft
Nearby Weather Stations

Elev 112 ft 30.84 °N, 85.18 °W | Updated 31 minutes ago

Clear
Clear
85 °F
Feels Like 85 °F
N
8
Wind Variable Wind from ESE

Today
High -- | Low -- °F
--% Chance of Precip.
Yesterday
High -- | Low -- °F
Precip. -- in
5:38 AM 7:36 PM
Waxing Gibbous, 85% visible
Pressure 30.12 in
Visibility 10.0 miles
Clouds Clear
Heat Index 85 °F
Dew Point 62 °F
Humidity 46%
Rainfall 0.00 in
Snow Depth Not available.
UV 12 out of 12
Pollen 5.40 out of 12
Air Quality Not available.
Flu Activity Sporadic
METAR KMAI 291853Z AUTO 11007KT 070V130 10SM CLR 29/17 A3013 RMK AO2 SLP200 T02940167

More Conditions Fewer Conditions

Pressure 30.12 in
Visibility 10.0 miles
Clouds Clear
Heat Index 85 °F
Dew Point 62 °F
Humidity 46%
Rainfall 0.00 in
Snow Depth Not available.
UV 12 out of 12
Pollen 5.40 out of 12
Air Quality Not available.
Flu Activity Sporadic
METAR KMAI 291853Z AUTO 11007KT 070V130 10SM CLR 29/17 A3013 RMK AO2 SLP200 T02940167

More Conditions Fewer Conditions

10-Day Weather Forecast

Almanac

Astronomy

May. 29, 2015 Rise Set
Actual Time
Civil Twilight
Nautical Twilight
Astronomical Twilight
Moon
Length of Visible Light
Length of Day
Tomorrow will be .
, % of the Moon is Illuminated

Today's Extremes

State Highs State Lows

Community

WunderPhotos

Upload Photos

1,825,330 photos uploaded!

WunderBlogs® & News

Nearby

Air Quality

  Air Quality AQ Index Pollutant
Not available.

Snow Depth

Station Depth Elevation

Earthquake Activity

City Distance Mag. Time & Date
Minimum magnitude displayed is 2.5.

Coastal Water Temperatures

Place Temperature

Stations

Nearby Weather Stations

Station Location Temp. Windchill Dew Point Humidity Wind Precip. Elev Updated Type